TMB weather

Public forecast

Using degrees Fahrenheit for public forecast. Weather courtesy of forecast.io.

Current aviation weather report (METAR) for Miami Executive Airport

Retrieved 2020/08/10 15:25 UTC (27 minutes ago):

KTMB 101525Z 09011KT 10SM SCT027 BKN033 BKN060 32/26 A3008 RMK AO2 T03220261

Aviation forecast (TAF) for Miami Executive Airport

Retrieved 2020/08/10 12:22 UTC (4 hours ago):

TAF KTMB 101120Z 1012/1112 00000KT P6SM SCT025 SCT100 FM101700 10007KT P6SM VCTS SCT025CB SCT250 FM110000 09005KT P6SM FEW035 SCT250